Time;durP1;ratioP1;P1;durP2;ratioP2;P2;SDS_P1;SDS_P2;PMS_P1;PMS_P2;Temp;Humidity;BMP_temperature;BMP_pressure;BME280_temperature;BME280_humidity;BME280_pressure;Samples;Min_cycle;Max_cycle;Signal;HPM_P1;HPM_P2
2023/02/13 00:01:16;;;;;;;0.20;0.20;;;6.00;99.90;;;;;;5035212;28;20021;-73
2023/02/13 00:03:42;;;;;;;0.20;0.20;;;6.00;99.90;;;;;;5034696;28;20490;-72
2023/02/13 00:06:08;;;;;;;0.20;0.20;;;6.00;99.90;;;;;;5034948;28;20037;-73
2023/02/13 00:08:34;;;;;;;0.20;0.20;;;6.00;99.90;;;;;;5035304;28;20033;-72
2023/02/13 00:11:00;;;;;;;0.20;0.20;;;5.90;99.90;;;;;;5034868;28;20391;-73
2023/02/13 00:13:25;;;;;;;0.20;0.20;;;5.90;99.90;;;;;;5034692;28;20037;-72
2023/02/13 00:15:58;;;;;;;0.10;0.10;;;6.00;99.90;;;;;;5033032;28;20025;-73
2023/02/13 00:18:25;;;;;;;0.20;0.20;;;6.00;99.90;;;;;;5034876;28;20029;-73
2023/02/13 00:21:01;;;;;;;0.30;0.30;;;6.00;99.90;;;;;;5034515;28;20040;-72
2023/02/13 00:23:30;;;;;;;0.20;0.20;;;6.00;99.90;;;;;;5015234;28;20018;-72
2023/02/13 00:25:55;;;;;;;0.20;0.20;;;6.00;99.90;;;;;;5014774;28;20018;-72
2023/02/13 00:28:21;;;;;;;0.20;0.20;;;6.00;99.90;;;;;;5015126;28;20034;-72
2023/02/13 00:30:46;;;;;;;0.20;0.20;;;6.00;99.90;;;;;;5014575;28;20062;-73
2023/02/13 00:33:12;;;;;;;0.20;0.20;;;6.00;99.90;;;;;;5019637;28;20438;-73
2023/02/13 00:35:37;;;;;;;0.15;0.15;;;5.90;99.90;;;;;;5033656;28;20485;-72
2023/02/13 00:38:03;;;;;;;2.15;1.48;;;5.90;99.90;;;;;;5034295;28;20025;-72
2023/02/13 00:40:28;;;;;;;0.20;0.20;;;6.00;99.90;;;;;;5034621;28;20047;-72
2023/02/13 00:42:54;;;;;;;0.20;0.20;;;6.00;99.90;;;;;;5034032;28;20067;-72
2023/02/13 00:45:20;;;;;;;0.20;0.20;;;6.00;99.90;;;;;;5034430;28;20098;-72
2023/02/13 00:47:45;;;;;;;0.55;0.55;;;6.00;99.90;;;;;;5033962;28;20108;-73
2023/02/13 00:50:11;;;;;;;0.30;0.30;;;6.00;99.90;;;;;;5034312;28;20025;-72
2023/02/13 00:52:36;;;;;;;0.20;0.20;;;6.00;99.90;;;;;;5033802;28;20031;-72
2023/02/13 00:55:02;;;;;;;0.20;0.20;;;6.00;99.90;;;;;;5034291;28;20033;-72
2023/02/13 00:57:29;;;;;;;0.20;0.20;;;6.00;99.90;;;;;;5033922;28;20025;-73
2023/02/13 00:59:55;;;;;;;0.20;0.20;;;5.90;99.90;;;;;;5034070;28;20028;-73
2023/02/13 01:02:20;;;;;;;0.20;0.20;;;5.90;99.90;;;;;;5033829;28;20403;-72
2023/02/13 01:04:46;;;;;;;0.20;0.20;;;5.90;99.90;;;;;;5033717;28;20075;-73
2023/02/13 01:07:12;;;;;;;0.22;0.22;;;5.90;99.90;;;;;;5033958;28;20029;-73
2023/02/13 01:09:37;;;;;;;0.20;0.20;;;5.90;99.90;;;;;;5033663;28;20047;-73
2023/02/13 01:12:03;;;;;;;0.20;0.20;;;5.80;99.90;;;;;;5033809;28;20083;-73
2023/02/13 01:14:29;;;;;;;0.20;0.20;;;5.80;99.90;;;;;;5033418;28;20617;-73
2023/02/13 01:16:54;;;;;;;0.20;0.20;;;5.90;99.90;;;;;;5033747;28;20052;-73
2023/02/13 01:19:20;;;;;;;0.10;0.10;;;5.80;99.90;;;;;;5033460;28;20033;-73
2023/02/13 01:21:45;;;;;;;1.30;0.75;;;5.80;99.90;;;;;;5033702;28;20025;-72
2023/02/13 01:24:11;;;;;;;0.22;0.22;;;5.80;99.90;;;;;;5033548;28;20029;-72
2023/02/13 01:26:36;;;;;;;0.50;0.50;;;5.80;99.90;;;;;;5033200;28;21390;-73
2023/02/13 01:29:02;;;;;;;0.20;0.20;;;5.80;99.90;;;;;;5033567;28;20021;-73
2023/02/13 01:31:28;;;;;;;0.20;0.20;;;5.80;99.90;;;;;;5033202;28;20218;-73
2023/02/13 01:33:57;;;;;;;0.40;0.40;;;5.80;99.90;;;;;;5033236;28;20053;-72
2023/02/13 01:36:24;;;;;;;0.52;0.52;;;5.80;99.90;;;;;;5033530;28;20076;-72
2023/02/13 01:38:53;;;;;;;0.20;0.20;;;5.80;99.90;;;;;;5033052;28;20036;-73
2023/02/13 01:41:18;;;;;;;1.92;1.75;;;5.70;99.90;;;;;;5033738;28;20446;-73
2023/02/13 01:43:47;;;;;;;0.30;0.30;;;5.70;99.90;;;;;;5032991;28;20052;-73
2023/02/13 01:46:18;;;;;;;1.23;0.93;;;5.80;99.90;;;;;;5032994;28;20033;-73
2023/02/13 01:48:45;;;;;;;0.20;0.20;;;5.70;99.90;;;;;;5033236;28;20105;-72
2023/02/13 01:51:17;;;;;;;0.28;0.28;;;5.80;99.90;;;;;;5033110;28;20029;-72
2023/02/13 01:54:04;;;;;;;0.20;0.20;;;5.70;99.90;;;;;;5032972;28;20117;-73
2023/02/13 01:56:59;;;;;;;0.20;0.20;;;5.70;99.90;;;;;;5020440;28;20087;-73
2023/02/13 01:59:33;;;;;;;0.20;0.20;;;5.80;99.90;;;;;;5030427;28;20055;-73
2023/02/13 02:01:59;;;;;;;0.10;0.10;;;5.80;99.90;;;;;;5033035;28;20129;-72
2023/02/13 02:04:29;;;;;;;0.20;0.20;;;5.70;99.90;;;;;;5033103;28;20021;-73
2023/02/13 02:07:00;;;;;;;0.47;0.47;;;5.70;99.90;;;;;;5032933;28;20116;-72
2023/02/13 02:09:30;;;;;;;0.20;0.20;;;5.70;99.90;;;;;;5033148;28;20072;-73
2023/02/13 02:12:19;;;;;;;4.13;2.17;;;5.80;99.90;;;;;;5033000;28;20034;-73
2023/02/13 02:14:44;;;;;;;0.10;0.10;;;5.80;99.90;;;;;;5032975;28;20073;-72
2023/02/13 02:17:11;;;;;;;0.20;0.20;;;5.80;99.90;;;;;;5032445;28;20052;-73
2023/02/13 02:20:05;;;;;;;0.20;0.20;;;5.80;99.90;;;;;;5032982;28;20032;-73
2023/02/13 02:23:17;;;;;;;0.30;0.30;;;5.80;99.90;;;;;;5033040;28;20030;-73
2023/02/13 02:26:21;;;;;;;0.45;0.45;;;5.80;99.90;;;;;;5013972;28;20034;-73
2023/02/13 02:29:20;;;;;;;0.20;0.20;;;5.80;99.90;;;;;;4952706;29;20094;-73
2023/02/13 02:31:53;;;;;;;0.20;0.20;;;5.80;99.90;;;;;;4952742;29;20062;-73
2023/02/13 02:34:51;;;;;;;0.20;0.20;;;5.80;99.90;;;;;;4997744;28;20499;-72
2023/02/13 02:37:37;;;;;;;0.20;0.20;;;5.80;99.90;;;;;;5012953;28;20018;-73
2023/02/13 02:40:40;;;;;;;0.20;0.20;;;5.80;99.90;;;;;;5021974;28;20029;-72
2023/02/13 02:43:20;;;;;;;0.20;0.20;;;5.80;99.90;;;;;;5032692;28;20079;-72
2023/02/13 02:45:53;;;;;;;0.60;0.60;;;5.80;99.90;;;;;;5032660;28;20441;-73
2023/02/13 02:51:35;;;;;;;5.00;1.77;;;5.90;99.90;;;;;;5032858;28;20033;-72
2023/02/13 03:06:09;;;;;;;7.93;1.17;;;5.80;99.90;;;;;;5032434;28;20037;-72
2023/02/13 03:06:12;;;;;;;0.20;0.20;;;5.80;99.90;;;;;;5036223;28;20088;-72
2023/02/13 03:14:15;;;;;;;0.55;0.55;;;5.80;99.90;;;;;;5059644;22;20052;-72
2023/02/13 03:23:09;;;;;;;2.92;0.75;;;5.80;99.90;;;;;;5002371;28;20028;-71
2023/02/13 03:25:48;;;;;;;0.20;0.20;;;5.80;99.90;;;;;;5016249;28;20072;-71
2023/02/13 03:31:31;;;;;;;0.20;0.20;;;5.80;99.90;;;;;;5015850;28;20037;-71
2023/02/13 03:34:22;;;;;;;0.43;0.43;;;5.80;99.90;;;;;;5015673;28;20076;-71
2023/02/13 03:40:04;;;;;;;0.57;0.57;;;5.70;99.90;;;;;;5015819;28;20076;-71
2023/02/13 03:42:37;;;;;;;0.20;0.20;;;5.70;99.90;;;;;;5016065;28;20018;-72
2023/02/13 03:48:08;;;;;;;0.30;0.30;;;5.70;99.90;;;;;;5015858;28;20036;-71
2023/02/13 03:50:38;;;;;;;0.20;0.20;;;5.80;99.90;;;;;;5015631;28;20040;-71
2023/02/13 03:53:08;;;;;;;0.30;0.30;;;5.80;99.90;;;;;;5015370;28;20040;-71
2023/02/13 04:01:24;;;;;;;1.23;1.08;;;5.80;99.90;;;;;;5015369;28;20029;-71
2023/02/13 04:03:56;;;;;;;0.20;0.20;;;5.80;99.90;;;;;;5014834;28;20388;-71
2023/02/13 04:06:50;;;;;;;0.20;0.20;;;5.80;99.90;;;;;;5015222;28;20050;-71
2023/02/13 04:09:16;;;;;;;0.15;0.15;;;5.70;99.90;;;;;;5007811;28;20041;-71
2023/02/13 04:11:47;;;;;;;0.22;0.22;;;5.70;99.90;;;;;;5015277;28;20045;-71
2023/02/13 04:14:46;;;;;;;0.20;0.20;;;5.70;99.90;;;;;;5014920;28;20030;-71
2023/02/13 04:17:17;;;;;;;0.10;0.10;;;5.80;99.90;;;;;;4980071;28;20034;-71
2023/02/13 04:19:43;;;;;;;0.20;0.20;;;5.80;99.90;;;;;;5015160;28;20387;-71
2023/02/13 04:22:11;;;;;;;0.63;0.63;;;5.80;99.90;;;;;;5014736;28;20034;-71
2023/02/13 04:24:37;;;;;;;0.20;0.20;;;5.80;99.90;;;;;;5013452;28;20480;-71
2023/02/13 04:27:02;;;;;;;0.10;0.10;;;5.70;99.90;;;;;;5014468;28;20033;-71
2023/02/13 04:29:28;;;;;;;6.65;1.02;;;5.70;99.90;;;;;;5014969;28;20454;-71
2023/02/13 04:31:53;;;;;;;1.00;0.47;;;5.80;99.90;;;;;;5014647;28;20021;-71
2023/02/13 04:34:19;;;;;;;0.52;0.52;;;5.80;99.90;;;;;;5014714;28;20026;-71
2023/02/13 04:36:45;;;;;;;0.50;0.50;;;5.80;99.90;;;;;;5014448;28;20056;-71
2023/02/13 04:39:11;;;;;;;1.67;1.13;;;5.90;99.90;;;;;;4997084;28;20030;-71
2023/02/13 04:41:36;;;;;;;0.20;0.20;;;5.90;99.90;;;;;;5014960;28;20026;-71
2023/02/13 04:44:02;;;;;;;0.20;0.20;;;5.80;99.90;;;;;;5014614;28;20026;-71
2023/02/13 04:46:27;;;;;;;0.20;0.20;;;5.80;99.90;;;;;;5014382;28;20030;-71
2023/02/13 04:48:53;;;;;;;0.30;0.30;;;5.80;99.90;;;;;;5014450;28;20064;-71
2023/02/13 04:51:18;;;;;;;0.20;0.20;;;5.80;99.90;;;;;;5014328;28;20504;-71
2023/02/13 04:53:44;;;;;;;1.00;1.00;;;5.80;99.90;;;;;;5014103;28;20033;-71
2023/02/13 04:56:10;;;;;;;1.65;0.77;;;5.80;99.90;;;;;;5014186;28;20483;-71
2023/02/13 04:58:35;;;;;;;2.67;1.20;;;5.80;99.90;;;;;;5014254;28;20384;-71
2023/02/13 05:01:01;;;;;;;1.48;1.15;;;5.80;99.90;;;;;;5014431;28;20026;-71
2023/02/13 05:03:26;;;;;;;0.35;0.35;;;5.70;99.90;;;;;;5014228;28;20030;-71
2023/02/13 05:05:52;;;;;;;0.20;0.20;;;5.80;99.90;;;;;;5013973;28;20451;-71
2023/02/13 05:08:17;;;;;;;0.50;0.50;;;5.80;99.90;;;;;;5014340;28;20034;-71
2023/02/13 05:10:43;;;;;;;0.20;0.20;;;5.80;99.90;;;;;;5014002;28;20030;-71
2023/02/13 05:13:09;;;;;;;5.15;1.38;;;5.80;99.90;;;;;;5013973;28;20117;-71
2023/02/13 05:15:34;;;;;;;1.55;1.23;;;5.80;99.90;;;;;;5013845;28;20034;-71
2023/02/13 05:18:00;;;;;;;0.20;0.20;;;5.80;99.90;;;;;;5013937;28;20022;-71
2023/02/13 05:20:25;;;;;;;0.50;0.50;;;5.70;99.90;;;;;;5013576;28;20491;-71
2023/02/13 05:25:38;;;;;;;0.10;0.10;;;5.80;99.90;;;;;;5014316;28;20112;-72
2023/02/13 05:29:17;;;;;;;1.02;0.98;;;5.80;99.90;;;;;;5014149;28;20100;-72
2023/02/13 05:30:51;;;;;;;0.20;0.20;;;5.80;99.90;;;;;;5013685;28;20029;-72
2023/02/13 05:33:16;;;;;;;0.20;0.20;;;5.80;99.90;;;;;;5013975;28;20399;-72
2023/02/13 05:35:42;;;;;;;0.20;0.20;;;5.80;99.90;;;;;;5013543;28;20072;-72
2023/02/13 05:38:07;;;;;;;0.10;0.10;;;5.80;99.90;;;;;;5013799;28;20033;-72
2023/02/13 05:40:33;;;;;;;0.45;0.32;;;5.80;99.90;;;;;;5013608;28;20475;-72
2023/02/13 05:42:58;;;;;;;0.60;0.60;;;5.80;99.90;;;;;;5014131;28;20468;-72
2023/02/13 05:45:24;;;;;;;0.13;0.13;;;5.70;99.90;;;;;;5013212;28;20112;-72
2023/02/13 05:47:49;;;;;;;1.45;0.43;;;5.70;99.90;;;;;;5013745;28;20021;-72
2023/02/13 05:50:15;;;;;;;0.15;0.15;;;5.70;99.90;;;;;;5013290;28;20435;-72
2023/02/13 05:52:40;;;;;;;0.30;0.30;;;5.70;99.90;;;;;;5013323;28;20022;-71
2023/02/13 05:55:06;;;;;;;0.20;0.20;;;5.70;99.90;;;;;;5013497;28;20392;-71
2023/02/13 05:57:32;;;;;;;0.20;0.20;;;5.70;99.90;;;;;;5013337;28;20468;-71
2023/02/13 05:59:57;;;;;;;0.20;0.20;;;5.70;99.90;;;;;;5013630;28;20074;-71
2023/02/13 06:02:23;;;;;;;0.38;0.38;;;5.70;99.90;;;;;;5013241;28;20054;-71
2023/02/13 06:04:48;;;;;;;0.20;0.20;;;5.70;99.90;;;;;;5013152;28;20022;-71
2023/02/13 06:07:14;;;;;;;0.60;0.35;;;5.70;99.90;;;;;;5013565;28;20038;-71
2023/02/13 06:09:39;;;;;;;0.10;0.10;;;5.70;99.90;;;;;;5013302;28;20034;-71
2023/02/13 06:12:05;;;;;;;0.20;0.20;;;5.70;99.90;;;;;;5013377;28;20048;-71
2023/02/13 06:14:31;;;;;;;0.63;0.63;;;5.70;99.90;;;;;;5013350;28;20093;-71
2023/02/13 06:16:56;;;;;;;0.25;0.25;;;5.70;99.90;;;;;;5012717;28;20392;-71
2023/02/13 06:19:22;;;;;;;0.20;0.20;;;5.70;99.90;;;;;;5013108;28;20045;-71
2023/02/13 06:21:47;;;;;;;0.20;0.20;;;5.70;99.90;;;;;;5012781;28;20710;-71
2023/02/13 06:24:13;;;;;;;0.20;0.20;;;5.60;99.90;;;;;;5013169;28;20036;-71
2023/02/13 06:26:38;;;;;;;0.20;0.20;;;5.70;99.90;;;;;;5012958;28;20030;-71
2023/02/13 06:29:04;;;;;;;0.20;0.20;;;5.60;99.90;;;;;;5013154;28;20034;-71
2023/02/13 06:31:29;;;;;;;0.20;0.20;;;5.60;99.90;;;;;;5013027;28;20423;-71
2023/02/13 06:33:55;;;;;;;0.10;0.10;;;5.60;99.90;;;;;;5015164;28;20602;-71
2023/02/13 06:36:20;;;;;;;0.20;0.20;;;5.60;99.90;;;;;;5016778;28;20083;-71
2023/02/13 06:38:46;;;;;;;0.17;0.17;;;5.60;99.90;;;;;;5016602;28;20060;-71
2023/02/13 06:41:11;;;;;;;0.20;0.20;;;5.60;99.90;;;;;;5017549;28;20100;-71
2023/02/13 06:43:37;;;;;;;0.30;0.30;;;5.60;99.90;;;;;;5016769;28;20022;-71
2023/02/13 06:46:07;;;;;;;0.10;0.10;;;5.60;99.90;;;;;;4999154;28;20387;-71
2023/02/13 06:48:33;;;;;;;0.20;0.20;;;5.70;99.90;;;;;;5016834;28;20054;-71
2023/02/13 06:51:00;;;;;;;0.20;0.20;;;5.70;99.90;;;;;;5016827;28;20446;-71
2023/02/13 06:53:25;;;;;;;0.20;0.20;;;5.70;99.90;;;;;;5016281;28;20026;-71
2023/02/13 06:55:52;;;;;;;0.10;0.10;;;5.70;99.90;;;;;;5016513;28;20087;-71
2023/02/13 06:58:18;;;;;;;0.20;0.20;;;5.60;99.90;;;;;;5016509;28;20018;-71
2023/02/13 07:00:44;;;;;;;0.20;0.20;;;5.60;99.90;;;;;;5016700;28;20110;-71
2023/02/13 07:03:10;;;;;;;0.20;0.20;;;5.70;99.90;;;;;;5016216;28;20104;-71
2023/02/13 07:05:39;;;;;;;0.28;0.28;;;5.70;99.90;;;;;;5016394;28;20018;-71
2023/02/13 07:08:05;;;;;;;0.20;0.20;;;5.70;99.90;;;;;;5016269;28;20041;-71
2023/02/13 07:10:30;;;;;;;0.17;0.17;;;5.80;99.90;;;;;;5016236;28;20021;-71
2023/02/13 07:12:56;;;;;;;0.10;0.10;;;5.70;99.90;;;;;;5016361;28;20083;-71
2023/02/13 07:15:21;;;;;;;0.20;0.20;;;5.70;99.90;;;;;;5015834;28;20445;-71
2023/02/13 07:17:47;;;;;;;0.20;0.20;;;5.80;99.90;;;;;;5015811;28;20069;-71
2023/02/13 07:20:12;;;;;;;0.20;0.20;;;5.80;99.90;;;;;;5016136;28;20538;-71
2023/02/13 07:22:38;;;;;;;0.20;0.20;;;5.80;99.90;;;;;;5015947;28;20061;-71
2023/02/13 07:25:04;;;;;;;0.30;0.30;;;5.80;99.90;;;;;;5016142;28;20030;-71
2023/02/13 07:27:29;;;;;;;0.20;0.20;;;5.70;99.90;;;;;;5015830;28;20025;-71
2023/02/13 07:29:56;;;;;;;0.20;0.20;;;5.70;99.90;;;;;;5016211;28;20026;-71
2023/02/13 07:32:22;;;;;;;0.17;0.17;;;5.80;99.90;;;;;;5015679;28;20022;-71
2023/02/13 07:34:48;;;;;;;0.20;0.20;;;5.80;99.90;;;;;;5015990;28;20595;-71
2023/02/13 07:37:14;;;;;;;0.20;0.20;;;5.80;99.90;;;;;;5015438;28;20026;-71
2023/02/13 07:39:40;;;;;;;0.30;0.30;;;5.80;99.90;;;;;;5015901;28;20127;-71
2023/02/13 07:42:06;;;;;;;0.10;0.10;;;5.80;99.90;;;;;;5015530;28;20014;-71
2023/02/13 07:44:32;;;;;;;0.20;0.20;;;5.80;99.90;;;;;;5015375;28;20025;-71
2023/02/13 07:46:58;;;;;;;0.20;0.20;;;5.80;99.90;;;;;;5015572;28;20018;-71
2023/02/13 07:49:24;;;;;;;0.20;0.20;;;5.80;99.90;;;;;;5015694;28;20018;-71
2023/02/13 07:51:50;;;;;;;0.45;0.45;;;5.80;99.90;;;;;;5015290;28;20026;-71
2023/02/13 07:54:15;;;;;;;0.10;0.10;;;5.80;99.90;;;;;;5015533;28;20030;-71
2023/02/13 07:56:41;;;;;;;0.22;0.22;;;5.80;99.90;;;;;;5015245;28;20026;-71
2023/02/13 07:59:06;;;;;;;0.20;0.20;;;5.80;99.90;;;;;;5015198;28;20484;-71
2023/02/13 08:01:32;;;;;;;0.20;0.20;;;5.90;99.90;;;;;;5015445;28;20053;-71
2023/02/13 08:03:57;;;;;;;0.30;0.30;;;5.90;99.90;;;;;;5015005;28;20599;-71
2023/02/13 08:06:23;;;;;;;0.10;0.10;;;5.90;99.90;;;;;;5015404;28;20048;-71
2023/02/13 08:11:52;;;;;;;0.10;0.10;;;5.90;99.90;;;;;;5015476;28;20037;-71
2023/02/13 08:11:53;;;;;;;0.20;0.20;;;5.90;99.90;;;;;;5014954;28;20034;-71
2023/02/13 08:14:22;;;;;;;;;;;5.90;99.90;;;;;;5015494;28;20040;-71
2023/02/13 08:16:47;;;;;;;0.52;0.52;;;5.90;99.90;;;;;;5014937;28;19982;-71
2023/02/13 08:19:13;;;;;;;0.10;0.10;;;5.90;99.90;;;;;;5015304;28;20516;-71
2023/02/13 08:21:39;;;;;;;0.20;0.20;;;6.00;99.90;;;;;;5015099;28;20155;-71
2023/02/13 08:24:05;;;;;;;0.15;0.15;;;6.00;99.90;;;;;;5014871;28;20396;-71
2023/02/13 08:26:31;;;;;;;0.20;0.20;;;6.00;99.90;;;;;;5014647;28;20026;-71
2023/02/13 08:28:57;;;;;;;0.20;0.20;;;6.00;99.90;;;;;;5015023;28;20115;-71
2023/02/13 08:31:23;;;;;;;0.20;0.20;;;6.10;99.90;;;;;;5014695;28;20480;-71
2023/02/13 08:33:48;;;;;;;0.20;0.20;;;6.10;99.90;;;;;;5014689;28;20480;-71
2023/02/13 08:36:14;;;;;;;0.20;0.20;;;6.10;99.90;;;;;;5001654;28;20037;-71
2023/02/13 08:38:40;;;;;;;0.20;0.20;;;6.10;99.90;;;;;;4994892;28;20448;-71
2023/02/13 08:41:05;;;;;;;0.20;0.20;;;6.20;99.90;;;;;;4994981;28;20030;-71
2023/02/13 08:43:31;;;;;;;0.20;0.20;;;6.20;99.90;;;;;;4988621;28;20022;-71
2023/02/13 08:45:59;;;;;;;0.20;0.20;;;6.30;99.90;;;;;;5014348;28;20034;-71
2023/02/13 08:48:26;;;;;;;0.20;0.20;;;6.30;99.90;;;;;;5014694;28;20484;-71
2023/02/13 08:50:52;;;;;;;0.20;0.20;;;6.30;99.90;;;;;;5014607;28;20033;-70
2023/02/13 08:53:17;;;;;;;0.20;0.20;;;6.30;99.90;;;;;;5014125;28;20033;-71
2023/02/13 08:55:54;;;;;;;0.65;0.45;;;6.40;99.90;;;;;;5013623;28;20034;-71
2023/02/13 08:58:20;;;;;;;0.20;0.20;;;6.40;99.90;;;;;;5014305;28;20025;-71
2023/02/13 09:00:46;;;;;;;0.20;0.20;;;6.50;99.90;;;;;;5014333;28;20534;-71
2023/02/13 09:03:11;;;;;;;0.10;0.10;;;6.50;99.90;;;;;;5014082;28;20053;-71
2023/02/13 09:05:37;;;;;;;0.10;0.10;;;6.50;99.90;;;;;;5014402;28;20055;-72
2023/02/13 09:08:02;;;;;;;0.15;0.15;;;6.60;99.90;;;;;;5013837;28;20087;-71
2023/02/13 09:10:29;;;;;;;0.20;0.20;;;6.60;99.90;;;;;;5014295;28;20025;-71
2023/02/13 09:12:55;;;;;;;0.20;0.20;;;6.70;99.90;;;;;;5014027;28;20022;-71
2023/02/13 09:15:20;;;;;;;0.20;0.20;;;6.70;99.90;;;;;;5072444;22;20086;-76
2023/02/13 09:17:46;;;;;;;0.20;0.20;;;6.70;99.90;;;;;;5037557;28;20021;-78
2023/02/13 09:20:12;;;;;;;0.20;0.20;;;6.80;99.90;;;;;;5035775;28;20017;-76
2023/02/13 09:22:39;;;;;;;0.20;0.20;;;6.80;99.90;;;;;;5034633;28;20064;-77
2023/02/13 09:25:05;;;;;;;0.20;0.20;;;6.80;99.90;;;;;;5035557;28;20044;-77
2023/02/13 09:27:32;;;;;;;0.20;0.20;;;6.80;99.90;;;;;;5035334;28;20037;-77
2023/02/13 09:29:58;;;;;;;0.15;0.15;;;6.90;99.90;;;;;;5026859;28;20052;-76
2023/02/13 09:32:23;;;;;;;0.20;0.20;;;6.90;99.90;;;;;;5033505;28;20447;-76
2023/02/13 09:34:49;;;;;;;0.10;0.10;;;6.90;99.90;;;;;;5033139;28;20394;-76
2023/02/13 09:37:14;;;;;;;0.20;0.20;;;7.00;99.90;;;;;;5015724;28;20120;-77
2023/02/13 09:39:40;;;;;;;0.28;0.28;;;7.00;99.90;;;;;;5033825;28;20035;-76
2023/02/13 09:42:16;;;;;;;0.20;0.20;;;7.10;99.90;;;;;;5033424;28;20104;-76
2023/02/13 09:44:43;;;;;;;0.20;0.20;;;7.10;99.90;;;;;;5033481;28;20391;-76
2023/02/13 09:47:14;;;;;;;0.20;0.20;;;7.10;99.90;;;;;;5033888;28;20433;-77
2023/02/13 09:49:45;;;;;;;0.20;0.20;;;7.20;99.90;;;;;;5034400;28;20386;-77
2023/02/13 09:52:11;;;;;;;0.20;0.20;;;7.30;99.90;;;;;;5015778;28;20071;-76
2023/02/13 09:54:37;;;;;;;1.25;1.08;;;7.30;99.90;;;;;;5033005;28;20538;-76
2023/02/13 09:57:14;;;;;;;0.20;0.20;;;7.30;99.90;;;;;;5033284;28;20029;-76
2023/02/13 09:59:45;;;;;;;0.85;0.85;;;7.30;99.90;;;;;;5033153;28;20029;-76
2023/02/13 10:02:52;;;;;;;0.20;0.20;;;7.30;99.90;;;;;;5033721;28;20074;-78
2023/02/13 10:05:41;;;;;;;0.20;0.20;;;7.30;99.90;;;;;;5035121;28;20132;-77
2023/02/13 10:08:32;;;;;;;0.17;0.17;;;7.30;99.90;;;;;;5034444;28;20036;-77
2023/02/13 10:11:19;;;;;;;0.50;0.50;;;7.40;99.90;;;;;;5015265;28;20430;-76
2023/02/13 10:13:44;;;;;;;0.20;0.20;;;7.40;99.90;;;;;;5034490;28;20033;-77
2023/02/13 10:16:13;;;;;;;0.20;0.20;;;7.40;99.90;;;;;;5017678;28;20030;-77
2023/02/13 10:18:54;;;;;;;0.20;0.20;;;7.50;99.90;;;;;;5037524;28;20029;-78
2023/02/13 10:21:25;;;;;;;0.95;0.85;;;7.60;99.90;;;;;;5036548;28;20028;-77
2023/02/13 10:24:21;;;;;;;0.20;0.20;;;7.60;99.90;;;;;;5036133;28;20021;-78
2023/02/13 10:26:46;;;;;;;7.03;0.95;;;7.50;99.90;;;;;;5029985;28;20045;-77
2023/02/13 10:32:10;;;;;;;0.20;0.20;;;7.60;99.90;;;;;;5036338;28;20052;-78
2023/02/13 10:34:41;;;;;;;0.22;0.22;;;7.60;99.90;;;;;;5035768;28;20025;-77
2023/02/13 10:37:20;;;;;;;0.20;0.20;;;7.60;99.90;;;;;;5036845;28;20029;-78
2023/02/13 10:39:49;;;;;;;0.20;0.20;;;7.60;99.90;;;;;;5036850;28;20043;-77
2023/02/13 10:42:24;;;;;;;0.10;0.10;;;7.60;99.90;;;;;;5037457;28;20036;-78
2023/02/13 10:45:24;;;;;;;0.20;0.20;;;7.60;99.90;;;;;;5019122;28;20104;-77
2023/02/13 10:48:34;;;;;;;0.10;0.10;;;7.60;99.90;;;;;;5037475;28;20021;-78
2023/02/13 10:51:06;;;;;;;1.80;1.23;;;7.60;99.90;;;;;;5017958;28;20475;-78
2023/02/13 10:53:49;;;;;;;0.20;0.20;;;7.60;99.90;;;;;;5034319;28;20053;-78
2023/02/13 10:56:40;;;;;;;0.20;0.20;;;7.70;99.90;;;;;;5034568;28;20112;-77
2023/02/13 10:59:46;;;;;;;1.23;0.63;;;7.70;99.90;;;;;;5018416;28;20028;-78
2023/02/13 11:02:20;;;;;;;0.20;0.20;;;7.70;99.90;;;;;;4996677;28;20041;-78
2023/02/13 11:04:45;;;;;;;;;;;7.70;99.90;;;;;;5038478;28;20475;-78
2023/02/13 11:07:16;;;;;;;0.40;0.40;;;7.80;99.90;;;;;;5037892;28;19909;-78
2023/02/13 11:09:45;;;;;;;0.20;0.20;;;7.80;99.90;;;;;;5036505;28;20037;-77
2023/02/13 11:12:29;;;;;;;0.20;0.20;;;7.80;99.90;;;;;;5035122;28;20033;-78
2023/02/13 11:15:00;;;;;;;0.30;0.30;;;7.90;99.90;;;;;;5004560;28;20040;-77
2023/02/13 11:17:30;;;;;;;0.20;0.20;;;8.00;99.90;;;;;;5023630;28;20040;-77
2023/02/13 11:20:00;;;;;;;0.20;0.20;;;8.00;99.90;;;;;;5026336;28;20017;-76
2023/02/13 11:22:33;;;;;;;1.02;0.65;;;7.90;99.90;;;;;;5032059;28;20229;-76
2023/02/13 11:25:04;;;;;;;0.52;0.52;;;7.80;99.90;;;;;;5032586;28;20026;-76
2023/02/13 11:27:34;;;;;;;0.47;0.40;;;7.70;99.90;;;;;;5027832;28;20177;-76
2023/02/13 11:30:04;;;;;;;0.20;0.20;;;7.70;99.90;;;;;;5026065;28;20030;-78
2023/02/13 11:32:32;;;;;;;0.20;0.20;;;7.70;99.90;;;;;;5009689;28;20364;-77
2023/02/13 11:35:26;;;;;;;0.20;0.20;;;7.70;99.90;;;;;;5030349;28;20427;-77
2023/02/13 11:38:17;;;;;;;0.20;0.20;;;7.70;99.90;;;;;;5030769;28;20025;-77
2023/02/13 11:40:46;;;;;;;0.20;0.20;;;7.70;99.90;;;;;;5027946;28;20408;-78
2023/02/13 11:43:28;;;;;;;0.20;0.20;;;7.70;99.90;;;;;;5030964;28;20372;-76
2023/02/13 11:46:07;;;;;;;0.20;0.20;;;7.80;99.90;;;;;;5032692;28;20045;-76
2023/02/13 11:48:34;;;;;;;0.28;0.28;;;7.80;99.90;;;;;;5031042;28;20036;-76
2023/02/13 11:51:00;;;;;;;0.30;0.30;;;7.80;99.90;;;;;;5035571;28;20033;-77
2023/02/13 11:53:34;;;;;;;0.25;0.25;;;7.70;99.90;;;;;;5036223;28;20103;-78
2023/02/13 11:56:05;;;;;;;0.20;0.20;;;7.70;99.90;;;;;;5037900;28;20037;-78
2023/02/13 11:58:31;;;;;;;0.20;0.20;;;7.70;99.90;;;;;;5037793;28;20111;-77
2023/02/13 12:01:08;;;;;;;0.20;0.20;;;7.70;99.90;;;;;;5040225;28;20033;-78
2023/02/13 12:03:34;;;;;;;0.20;0.20;;;7.70;99.90;;;;;;5049329;28;20119;-78
2023/02/13 12:06:17;;;;;;;0.10;0.10;;;7.80;99.90;;;;;;5039318;28;20053;-78
2023/02/13 12:08:45;;;;;;;2.95;2.75;;;7.80;99.90;;;;;;5037466;28;20585;-76
2023/02/13 12:11:33;;;;;;;0.20;0.20;;;7.80;99.90;;;;;;5029591;28;20505;-77
2023/02/13 12:13:59;;;;;;;1.65;1.55;;;7.80;99.90;;;;;;5043733;28;20103;-78
2023/02/13 12:16:40;;;;;;;0.20;0.20;;;7.80;99.90;;;;;;5019568;28;20025;-78
2023/02/13 12:19:13;;;;;;;0.30;0.30;;;7.80;99.90;;;;;;5040949;28;20080;-78
2023/02/13 12:22:15;;;;;;;0.20;0.20;;;7.60;99.90;;;;;;5038016;28;20084;-77
2023/02/13 12:24:50;;;;;;;0.20;0.20;;;7.70;99.90;;;;;;5034205;28;20021;-77
2023/02/13 12:27:41;;;;;;;0.20;0.20;;;7.70;99.90;;;;;;5037847;28;20723;-78
2023/02/13 12:30:34;;;;;;;1.33;1.27;;;7.70;99.90;;;;;;5041184;28;20043;-78
2023/02/13 12:33:15;;;;;;;0.20;0.20;;;7.70;99.90;;;;;;5044661;28;20028;-78
2023/02/13 12:36:03;;;;;;;0.50;0.50;;;7.70;99.90;;;;;;5053895;28;20022;-78
2023/02/13 12:38:38;;;;;;;0.20;0.20;;;7.70;99.90;;;;;;5037239;28;20071;-76
2023/02/13 12:41:16;;;;;;;0.30;0.30;;;7.70;99.90;;;;;;5056417;28;20025;-78
2023/02/13 12:44:18;;;;;;;0.20;0.20;;;7.60;99.90;;;;;;5047959;28;20029;-78
2023/02/13 12:46:55;;;;;;;0.20;0.20;;;7.60;99.90;;;;;;5037761;28;20112;-78
2023/02/13 12:49:48;;;;;;;0.20;0.20;;;7.70;99.90;;;;;;5037524;28;20105;-78
2023/02/13 12:52:39;;;;;;;0.50;0.50;;;7.70;99.90;;;;;;5038632;28;20025;-77
2023/02/13 12:55:24;;;;;;;0.28;0.28;;;7.70;99.90;;;;;;5057073;28;20033;-78
2023/02/13 12:57:59;;;;;;;0.20;0.20;;;7.60;99.90;;;;;;5056638;28;20512;-78
2023/02/13 13:01:16;;;;;;;0.20;0.20;;;7.50;99.90;;;;;;5039690;28;20033;-78
2023/02/13 13:03:50;;;;;;;0.28;0.28;;;7.60;99.90;;;;;;5008688;28;20037;-78
2023/02/13 13:06:31;;;;;;;0.45;0.45;;;7.70;99.90;;;;;;5058246;28;20064;-78
2023/02/13 13:09:27;;;;;;;0.20;0.20;;;7.60;99.90;;;;;;5045993;28;20418;-77
2023/02/13 13:12:07;;;;;;;0.55;0.55;;;7.60;99.90;;;;;;5043347;28;20083;-77
2023/02/13 13:14:33;;;;;;;0.20;0.20;;;7.60;99.90;;;;;;5058732;28;20520;-78
2023/02/13 13:17:19;;;;;;;1.77;1.67;;;7.60;99.90;;;;;;5056687;28;20066;-78
2023/02/13 13:20:14;;;;;;;0.10;0.10;;;7.50;99.90;;;;;;5028660;28;20398;-78
2023/02/13 13:22:54;;;;;;;0.28;0.28;;;7.40;99.90;;;;;;4993875;28;20434;-77
2023/02/13 13:25:24;;;;;;;0.20;0.20;;;7.40;99.90;;;;;;5037756;28;20025;-78
2023/02/13 13:27:54;;;;;;;16.98;15.52;;;7.40;99.90;;;;;;5037434;28;20033;-77
2023/02/13 13:30:27;;;;;;;0.20;0.20;;;7.40;99.90;;;;;;5050112;28;20505;-78
2023/02/13 13:33:01;;;;;;;0.20;0.20;;;7.50;99.90;;;;;;5051243;28;20047;-78
2023/02/13 13:35:28;;;;;;;0.30;0.30;;;7.50;99.90;;;;;;5056831;28;20037;-78
2023/02/13 13:38:16;;;;;;;0.20;0.20;;;7.60;99.90;;;;;;5045959;28;20418;-78
2023/02/13 13:40:57;;;;;;;0.20;0.20;;;7.50;99.90;;;;;;5040875;28;20024;-78
2023/02/13 13:43:41;;;;;;;3.33;1.20;;;7.50;99.90;;;;;;5033247;28;20021;-78
2023/02/13 13:46:36;;;;;;;0.10;0.10;;;7.50;99.90;;;;;;5019840;28;20033;-77
2023/02/13 13:49:13;;;;;;;0.20;0.20;;;7.40;99.90;;;;;;5029912;28;20068;-78
2023/02/13 13:51:39;;;;;;;0.20;0.20;;;7.40;99.90;;;;;;5036793;28;20032;-77
2023/02/13 13:54:04;;;;;;;0.10;0.10;;;7.40;99.90;;;;;;5053127;28;20112;-78
2023/02/13 13:56:51;;;;;;;0.20;0.20;;;7.40;99.90;;;;;;5055251;28;20025;-77
2023/02/13 13:59:32;;;;;;;0.20;0.20;;;7.40;99.90;;;;;;5046608;28;20080;-78
2023/02/13 14:02:16;;;;;;;0.30;0.30;;;7.40;99.90;;;;;;5040965;28;20030;-78
2023/02/13 14:05:00;;;;;;;0.20;0.20;;;7.40;99.90;;;;;;5017724;28;20024;-77
2023/02/13 14:07:33;;;;;;;1.40;1.30;;;7.40;99.90;;;;;;5016769;28;20065;-78